Hlavní strana
METAR-TAF:

METAR-TAF

Letiště :

Kajaani, Finsko

zeměpisná šířka: 64-17N, zeměpisná délka: 027-41E, výška: 143 m

Aktuální stav počasí

Zpráva byla vytvořena před 30 minutami, v 22:20 UTC
Jihojihozápadní vítr 10 kt, proměnlivý mezi jižním a jihozápadním
Teplota 3°C
Vlhkost vzduchu 87%
Tlak 975 hPa
Viditelnost 10 km a více
Zataženo ve výšce 1200 ft
déšť

METAR: EFKI 172220Z AUTO 21010KT 170V230 9999 RA OVC012 03/01 Q0975

Čas: 00:50 (22:50 UTC)

Předpověď počasí

Zpráva byla vytvořena před 5 hodinami a 24 minutami, v 17:26 UTC
Předpověď platná od 17 v 18 UTC do 17 v 22 UTC
Jihozápadní vítr 9 kt
Viditelnost 10 km a více
Oblačno až skoro zataženo ve výšce 2000 ft
Dočasný
od 17 v 18 UTC do 17 v 22 UTC
Oblačno až skoro zataženo ve výšce 1000 ft

TAF: EFKI 171726Z 1718/1722 22009KT 9999 BKN020 TEMPO 1718/1722 BKN010

Stav a předpovědi počasí z více než 4 000 letišť (zprávy METAR a TAF).

Červené a žluté tečky na mapě představují dostupné meteorologické stanice.

Když kurzor umístíte na tečku, zobrazí se název stanice.

Pak kliknutím zobrazíte stav a předpověď počasí.

Chcete-li změnit mapu, kliknutím na zelené tlačítko se znaménkem +mapu přiblížíte, kliknutím na zelené tlačítko se znaménkem – mapu oddálíte a kliknutím na zelené šipky přejdete na sousední mapy.


METAR-TAF: